KCLS/CLS METAR and TAF weather

Enter ICAO airport designator
Station Type Date Time Source
KCLS METAR 2020/07/04 02:55 UTC NOAA

KCLS 040255Z AUTO 00000KT 10SM BKN100 BKN120 18/12 A3013 RMK AO2


Station Type Date Time Source
KCLS Decoded METAR 2020/07/04 02:55 UTC NOAA

Station name not available
Jul 03, 2020 - 10:55 PM EDT / 2020.07.04 0255 UTC
Wind: Calm:0
Visibility: 10 mile(s):0
Sky conditions: mostly cloudy
Temperature: 64 F (18 C)
Dew Point: 53 F (12 C)
Relative Humidity: 67%
Pressure (altimeter): 30.13 in. Hg (1020 hPa)
ob: KCLS 040255Z AUTO 00000KT 10SM BKN100 BKN120 18/12 A3013 RMK AO2
cycle: 3

Station Type Date Time Source
KCLS TAF UTC NOAA

Error!

Example: see airport list